首页
METAR-TAF:

METAR-TAF

机场 :

阿尔汉格尔斯克, 俄罗斯

纬度: 64-30N, 经度: 040-44E, 海拔: 13米

当前天气观测

该预报发布于15分钟前的08:30 UTC
风速6节,风向西北,在西北转东北之间变化
温度 13°C
湿度 67%
气压 1005 hPa
能见度10公里或以上
多云层高于2500英尺

METAR: ULAA 140830Z 32003MPS 270V020 9999 BKN025 13/07 Q1005 R08/CLRD70 NOSIG RMK QFE752/1003

时间: 11:45 (08:45 UTC)

预报

该预报发布于45分钟前的08:00 UTC
预报有效从14日的 09点(UTC)到 15日的 09点(UTC)
风速6节,风向北转西北
能见度10公里或以上
多云层高于1500英尺
短暂存在
从 14日的 09点(UTC)到 14日的 12点(UTC)
风速6节,风向西,有时为17节阵风
能見度: 4000
多云层高于1100英尺, 积雨云.
小阵雨
短暂存在
从 14日的 12点(UTC)到 14日的 21点(UTC)
风速6节,风向,有时为19节阵风
能見度: 3100
多云层高于1100英尺, 积雨云.
小阵雨
短暂存在
从 14日的 21点(UTC)到 15日的 06点(UTC)
风速6节,风向西转西北
能見度: 3100
多云层高于1000英尺, 积雨云.
小阵雨, 轻雾

TAF: ULAA 140800Z 1409/1509 34003MPS 9999 BKN015 TEMPO 1409/1412 26003G09MPS 4000 -SHRA BKN011CB TEMPO 1412/1421 01003G10MPS 3100 -SHRA BKN011CB TEMPO 1421/1506 30003MPS 3100 -SHRA BR BKN010CB

超过4000个机场的气象观测和天气预报(METAR&TAF报告)。

可查询的气象台以黄色和红色小点在地图上表示。

将鼠标移到小点上方,可查看气象台名称。

然后点击查看天气观测和预报。

如需切换地图:点击带黑十字的绿色按钮放大地图;点击带横线的绿色按钮缩小地图;或者点击绿色箭头查看邻近地区的地图。


METAR-TAF: